KHYI

San Marcos Regional Airport

Austin, Texas, USA
METAR KHYI 170007Z 32005KT 2SM RA BR BKN013 OVC020 06/06 A3005 RMK AO2 P0010 $
Observed Flight Rules
Dec-17 @ 00:07 UTC (20 minutes ago) Instrument Flight Rules
Wind Visibility Clouds Conditions
320° at 5 knots 2 miles
  • Broken at 1,300' AGL
  • Overcast at 2,000' AGL
  • Rain
  • Mist
Temperatures Readings Precipitation
Current 6°C / 43°F
Dewpoint 6°C / 43°F
Humidity 100%
Altimeter 30.05" Hg
Pressure 1018 hPa
Elevation 182
Current Rain 0.1
METAR KHYI 170007Z 32005KT 2SM RA BR BKN013 OVC020 06/06 A3005 RMK AO2 P0010 $
Observed Flight Rules
Dec-17 @ 00:07 UTC
(20 minutes ago)
IFR
Wind Visibility
320° at 5 knots 2 miles
Clouds
  • Broken at 1,300' AGL
  • Overcast at 2,000' AGL
Conditions
  • Rain
  • Mist
Temperature Dewpoint
6°C / 43°F 6°C / 43°F
Humidity Altimeter Pressure
100% 30.05" Hg 1018 hPa
Current Rain
0.1